| time (UTC) | temp C | wind direction | speed KPH | gust KPH | rain 1hr cm | rain 24hr cm | rain mn cm | humidity % | barometer mb |
| 20260507163045 | 16 | 337 | 6.4 | 14.5 | 0.00 | 0.30 | 0.05 | 62 | 1014.5 |
| 20260507161529 | 16 | 29 | 3.2 | 14.5 | 0.00 | 0.30 | 0.05 | 66 | 1014.5 |
| 20260507160109 | 16 | 22 | 3.2 | 9.7 | 0.00 | 0.30 | 0.05 | 65 | 1014.5 |
| 20260507154536 | 16 | 42 | 3.2 | 16.1 | 0.00 | 0.33 | 0.05 | 65 | 1014.6 |
| 20260507153109 | 16 | 24 | 3.2 | 12.9 | 0.00 | 0.33 | 0.05 | 64 | 1014.6 |
| 20260507151556 | 16 | 5 | 4.8 | 14.5 | 0.00 | 0.33 | 0.05 | 65 | 1014.6 |
| 20260507150002 | 16 | 5 | 3.2 | 12.9 | 0.00 | 0.33 | 0.05 | 65 | 1014.6 |
| 20260507144600 | 17 | 348 | 4.8 | 14.5 | 0.00 | 0.36 | 0.05 | 63 | 1014.7 |
| 20260507144508 | 17 | 355 | 4.8 | 14.5 | 0.00 | 0.36 | 0.05 | 64 | 1014.7 |
| 20260507143056 | 16 | 5 | 4.8 | 17.7 | 0.00 | 0.36 | 0.05 | 66 | 1014.6 |
| 20260507141517 | 16 | 42 | 4.8 | 17.7 | 0.00 | 0.36 | 0.05 | 66 | 1014.7 |
| 20260507140014 | 16 | 40 | 4.8 | 19.3 | 0.00 | 0.36 | 0.05 | 68 | 1014.7 |
| 20260507134523 | 16 | 26 | 6.4 | 17.7 | 0.00 | 0.38 | 0.05 | 69 | 1014.8 |
| 20260507133109 | 16 | 44 | 6.4 | 22.5 | 0.00 | 0.38 | 0.05 | 68 | 1014.8 |
| 20260507131543 | 16 | 24 | 8.0 | 19.3 | 0.00 | 0.38 | 0.05 | 70 | 1014.8 |
| 20260507130108 | 16 | 330 | 6.4 | 19.3 | 0.00 | 0.38 | 0.05 | 54 | 1014.9 |
| 20260507124547 | 17 | 217 | 8.0 | 22.5 | 0.00 | 0.43 | 0.05 | 57 | 1014.9 |
| 20260507123129 | 16 | 258 | 14.5 | 19.3 | 0.00 | 0.43 | 0.05 | 51 | 1014.9 |
| 20260507121555 | 16 | 254 | 9.7 | 24.1 | 0.00 | 0.43 | 0.05 | 57 | 1014.9 |
| 20260507120004 | 16 | 290 | 9.7 | 17.7 | 0.00 | 0.43 | 0.05 | 58 | 1014.8 |
| 20260507114554 | 16 | 246 | 14.5 | 19.3 | 0.00 | 0.58 | 0.05 | 57 | 1014.9 |
| 20260507113006 | 15 | 212 | 16.1 | 25.7 | 0.00 | 0.58 | 0.05 | 62 | 1014.9 |
| 20260507111557 | 16 | 232 | 6.4 | 20.9 | 0.00 | 0.58 | 0.05 | 62 | 1014.9 |
| 20260507110014 | 15 | 246 | 14.5 | 22.5 | 0.00 | 0.58 | 0.05 | 63 | 1015.0 |
| 20260507104515 | 15 | 271 | 9.7 | 22.5 | 0.00 | 0.66 | 0.05 | 68 | 1015.0 |
| 20260507103049 | 14 | 221 | 8.0 | 19.3 | 0.00 | 0.66 | 0.05 | 70 | 1015.1 |
| 20260507101525 | 13 | 292 | 6.4 | 17.7 | 0.00 | 0.66 | 0.05 | 72 | 1015.2 |
| 20260507094533 | 14 | 236 | 11.3 | 20.9 | 0.00 | 0.66 | 0.05 | 74 | 1015.2 |
| 20260507093051 | 13 | 227 | 12.9 | 24.1 | 0.00 | 0.66 | 0.05 | 75 | 1015.3 |
| 20260507091522 | 13 | 310 | 9.7 | 19.3 | 0.00 | 0.66 | 0.05 | 78 | 1015.3 |
| 20260507090055 | 12 | 242 | 6.4 | 19.3 | 0.00 | 0.66 | 0.05 | 81 | 1015.2 |
| 20260507084516 | 12 | 298 | 11.3 | 22.5 | 0.00 | 0.66 | 0.05 | 81 | 1015.1 |
| 20260507083042 | 12 | 251 | 6.4 | 20.9 | 0.00 | 0.66 | 0.05 | 85 | 1015.0 |
| 20260507081511 | 11 | 227 | 9.7 | 20.9 | 0.00 | 0.66 | 0.05 | 86 | 1015.0 |
| 20260507080042 | 11 | 243 | 14.5 | 19.3 | 0.00 | 0.66 | 0.05 | 87 | 1015.0 |
| 20260507074515 | 11 | 259 | 9.7 | 19.3 | 0.00 | 0.66 | 0.05 | 89 | 1014.9 |
| 20260507073007 | 10 | 223 | 11.3 | 20.9 | 0.00 | 0.66 | 0.05 | 90 | 1014.8 |
| 20260507071551 | 10 | 222 | 12.9 | 19.3 | 0.00 | 0.66 | 0.05 | 91 | 1014.8 |
| 20260507070118 | 10 | 222 | 6.4 | 14.5 | 0.00 | 0.66 | 0.05 | 92 | 1014.6 |
| 20260507064625 | 10 | 237 | 8.0 | 14.5 | 0.00 | 0.66 | 0.05 | 92 | 1014.6 |
| 20260507063131 | 10 | 232 | 8.0 | 14.5 | 0.00 | 0.66 | 0.05 | 92 | 1014.5 |
| 20260507061537 | 10 | 215 | 9.7 | 17.7 | 0.00 | 0.66 | 0.05 | 92 | 1014.4 |
| 20260507060116 | 9 | 215 | 9.7 | 17.7 | 0.00 | 0.66 | 0.05 | 93 | 1014.2 |
| 20260507054528 | 9 | 238 | 9.7 | 16.1 | 0.00 | 0.66 | 0.05 | 93 | 1014.2 |
| 20260507053108 | 9 | 215 | 8.0 | 16.1 | 0.00 | 0.66 | 0.05 | 93 | 1014.1 |
| 20260507051540 | 9 | 232 | 8.0 | 16.1 | 0.00 | 0.66 | 0.05 | 93 | 1013.9 |
| 20260507050107 | 9 | 202 | 6.4 | 12.9 | 0.00 | 0.66 | 0.05 | 93 | 1013.8 |
| 20260507044534 | 9 | 240 | 6.4 | 12.9 | 0.00 | 0.66 | 0.05 | 93 | 1013.6 |
| 20260507043058 | 9 | 235 | 6.4 | 12.9 | 0.00 | 0.66 | 0.05 | 93 | 1013.4 |
| 20260507041529 | 9 | 230 | 6.4 | 12.9 | 0.00 | 0.66 | 0.05 | 93 | 1013.3 |
| 20260507040052 | 9 | 215 | 4.8 | 12.9 | 0.00 | 0.66 | 0.05 | 93 | 1013.3 |
| 20260507034529 | 9 | 235 | 8.0 | 16.1 | 0.00 | 0.66 | 0.05 | 93 | 1013.2 |
| 20260507033056 | 9 | 242 | 8.0 | 19.3 | 0.00 | 0.66 | 0.05 | 93 | 1013.1 |
| 20260507031534 | 9 | 225 | 8.0 | 14.5 | 0.00 | 0.66 | 0.05 | 93 | 1013.0 |
| 20260507030057 | 9 | 218 | 6.4 | 14.5 | 0.00 | 0.66 | 0.05 | 93 | 1012.9 |
| 20260507024530 | 9 | 242 | 4.8 | 9.7 | 0.00 | 0.66 | 0.05 | 93 | 1012.9 |
| 20260507023100 | 9 | 234 | 8.0 | 14.5 | 0.00 | 0.66 | 0.05 | 93 | 1012.9 |
| 20260507021531 | 9 | 212 | 8.0 | 16.1 | 0.03 | 0.66 | 0.05 | 93 | 1012.8 |
| 20260507020119 | 9 | 228 | 11.3 | 16.1 | 0.03 | 0.66 | 0.05 | 93 | 1012.6 |
| 20260507014532 | 9 | 248 | 9.7 | 14.5 | 0.03 | 0.66 | 0.05 | 93 | 1012.4 |
| 20260507013104 | 9 | 243 | 9.7 | 17.7 | 0.03 | 0.66 | 0.05 | 93 | 1012.4 |
| 20260507011540 | 9 | 247 | 8.0 | 14.5 | 0.03 | 0.64 | 0.05 | 93 | 1012.4 |
| 20260507010118 | 9 | 245 | 8.0 | 16.1 | 0.03 | 0.64 | 0.05 | 93 | 1012.4 |
| 20260507004536 | 8 | 238 | 9.7 | 16.1 | 0.03 | 0.64 | 0.05 | 93 | 1012.3 |
| 20260507003106 | 8 | 228 | 8.0 | 16.1 | 0.03 | 0.64 | 0.05 | 93 | 1012.3 |
| 20260507001534 | 8 | 211 | 8.0 | 14.5 | 0.03 | 0.61 | 0.03 | 93 | 1012.2 |
| 20260507000104 | 8 | 240 | 8.0 | 12.9 | 0.03 | 0.61 | 0.03 | 93 | 1012.2 |
| 20260506234531 | 8 | 241 | 6.4 | 14.5 | 0.03 | 0.61 | 0.03 | 93 | 1012.3 |
| 20260506233108 | 8 | 216 | 4.8 | 11.3 | 0.03 | 0.61 | 0.03 | 93 | 1012.3 |
| 20260506231551 | 8 | 202 | 3.2 | 8.0 | 0.00 | 0.61 | 0.00 | 93 | 1012.3 |
| 20260506230126 | 8 | 186 | 3.2 | 6.4 | 0.00 | 0.61 | 0.00 | 92 | 1012.2 |
| 20260506224541 | 8 | 178 | 3.2 | 8.0 | 0.03 | 0.61 | 0.00 | 92 | 1012.3 |
| 20260506223109 | 8 | 192 | 4.8 | 11.3 | 0.03 | 0.61 | 0.00 | 92 | 1012.2 |
| 20260506221602 | 8 | 209 | 4.8 | 9.7 | 0.03 | 0.61 | 0.00 | 92 | 1012.0 |
| 20260506220133 | 8 | 217 | 6.4 | 11.3 | 0.03 | 0.61 | 0.00 | 92 | 1012.0 |
| 20260506214544 | 9 | 225 | 3.2 | 9.7 | 0.00 | 0.58 | 0.58 | 92 | 1012.0 |
| 20260506213111 | 9 | 214 | 4.8 | 11.3 | 0.00 | 0.58 | 0.58 | 92 | 1011.9 |
| 20260506211541 | 9 | 213 | 4.8 | 19.3 | 0.00 | 0.58 | 0.58 | 92 | 1011.8 |
| 20260506210113 | 9 | 239 | 4.8 | 14.5 | 0.00 | 0.58 | 0.58 | 92 | 1011.7 |
| 20260506204543 | 9 | 220 | 4.8 | 12.9 | 0.00 | 0.58 | 0.58 | 92 | 1011.6 |
| 20260506203106 | 9 | 222 | 4.8 | 12.9 | 0.00 | 0.58 | 0.58 | 92 | 1011.5 |
| 20260506201539 | 10 | 216 | 6.4 | 14.5 | 0.03 | 0.58 | 0.58 | 92 | 1011.3 |
| 20260506200058 | 10 | 225 | 9.7 | 14.5 | 0.05 | 0.58 | 0.58 | 92 | 1011.2 |
| 20260506194529 | 10 | 207 | 11.3 | 24.1 | 0.05 | 0.58 | 0.58 | 92 | 1011.1 |
| 20260506193107 | 10 | 239 | 16.1 | 25.7 | 0.05 | 0.58 | 0.58 | 92 | 1011.0 |
| 20260506191526 | 10 | 187 | 8.0 | 22.5 | 0.05 | 0.56 | 0.56 | 93 | 1010.8 |
| 20260506190057 | 10 | 221 | 3.2 | 8.0 | 0.05 | 0.53 | 0.53 | 92 | 1010.6 |
| 20260506184538 | 10 | 202 | 4.8 | 8.0 | 0.05 | 0.53 | 0.53 | 92 | 1010.4 |
| 20260506183115 | 10 | 209 | 4.8 | 9.7 | 0.05 | 0.51 | 0.51 | 92 | 1010.3 |
| 20260506181539 | 10 | 205 | 4.8 | 9.7 | 0.05 | 0.51 | 0.51 | 92 | 1010.2 |
| 20260506180104 | 10 | 219 | 6.4 | 11.3 | 0.05 | 0.51 | 0.51 | 92 | 1010.1 |
| 20260506174536 | 10 | 234 | 4.8 | 12.9 | 0.05 | 0.69 | 0.48 | 92 | 1009.9 |
| 20260506173105 | 10 | 219 | 6.4 | 16.1 | 0.08 | 0.69 | 0.48 | 92 | 1009.8 |
| 20260506171556 | 10 | 223 | 9.7 | 14.5 | 0.08 | 0.66 | 0.46 | 91 | 1009.6 |
| 20260506170113 | 10 | 258 | 8.0 | 17.7 | 0.10 | 0.66 | 0.46 | 91 | 1009.5 |
| 20260506164555 | 11 | 216 | 4.8 | 12.9 | 0.10 | 0.69 | 0.43 | 91 | 1009.4 |